createdAt,value
2019-05-13T00:00:34.309Z,4.75
2019-05-13T00:01:35.374Z,4.65
2019-05-13T00:02:34.541Z,4.75
2019-05-13T00:03:35.397Z,4.70
2019-05-13T00:04:34.251Z,4.72
2019-05-13T00:05:34.376Z,4.72
2019-05-13T00:06:48.952Z,4.70
2019-05-13T00:07:35.738Z,4.70
2019-05-13T00:08:34.945Z,4.73
2019-05-13T00:09:35.099Z,4.59
2019-05-13T00:10:35.255Z,4.58
2019-05-13T00:11:35.402Z,4.50
2019-05-13T00:12:35.917Z,4.61
2019-05-13T00:13:35.658Z,4.57
2019-05-13T00:14:36.401Z,4.52
2019-05-13T00:15:36.029Z,4.46
2019-05-13T00:16:36.179Z,4.47
2019-05-13T00:17:36.410Z,4.43
2019-05-13T00:18:36.530Z,4.34
2019-05-13T00:19:36.673Z,4.32
2019-05-13T00:20:37.387Z,4.21
2019-05-13T00:21:36.976Z,4.24
2019-05-13T00:22:37.401Z,4.18
2019-05-13T00:23:37.284Z,4.14
2019-05-13T00:24:38.394Z,4.26
2019-05-13T00:25:37.622Z,4.06
2019-05-13T00:26:37.735Z,4.22
2019-05-13T00:27:38.406Z,4.12
2019-05-13T00:28:38.177Z,4.19
2019-05-13T00:29:38.298Z,4.10
2019-05-13T00:30:38.541Z,4.08
2019-05-13T00:31:38.900Z,4.00
2019-05-13T00:32:39.893Z,4.07
2019-05-13T00:33:39.131Z,4.00
2019-05-13T00:34:39.269Z,4.03
2019-05-13T00:35:39.893Z,4.01
2019-05-13T00:36:39.637Z,3.98
2019-05-13T00:37:39.772Z,3.97
2019-05-13T00:38:40.888Z,3.97
2019-05-13T00:39:40.258Z,3.94
2019-05-13T00:40:40.398Z,3.88
2019-05-13T00:41:40.558Z,3.85
2019-05-13T00:42:40.669Z,3.79
2019-05-13T00:43:44.468Z,3.89
2019-05-13T00:44:44.366Z,3.70
2019-05-13T00:45:44.183Z,3.70
2019-05-13T00:46:44.117Z,3.67
2019-05-13T00:47:43.666Z,3.79
2019-05-13T00:48:43.914Z,3.70
2019-05-13T00:49:43.775Z,3.78
2019-05-13T00:50:44.257Z,3.70
2019-05-13T00:51:44.507Z,3.71
2019-05-13T00:52:45.035Z,3.71
2019-05-13T00:53:44.201Z,3.67
2019-05-13T00:54:44.225Z,3.75
2019-05-13T00:56:16.546Z,3.70
2019-05-13T00:56:43.680Z,3.62
2019-05-13T00:57:44.509Z,3.72
2019-05-13T00:58:43.933Z,3.71
2019-05-13T00:59:44.920Z,3.65
2019-05-13T01:00:44.451Z,3.78
2019-05-13T01:01:45.342Z,3.75
2019-05-13T01:02:44.875Z,3.78
2019-05-13T01:03:46.427Z,3.64
2019-05-13T01:04:45.908Z,3.64
2019-05-13T01:05:45.149Z,3.67
2019-05-13T01:06:45.909Z,3.65
2019-05-13T01:07:45.917Z,3.52
2019-05-13T01:08:46.409Z,3.71
2019-05-13T01:09:46.422Z,3.52
2019-05-13T01:10:45.927Z,3.60
2019-05-13T01:11:45.983Z,3.50
2019-05-13T01:12:46.140Z,3.52
2019-05-13T01:13:46.317Z,3.33
2019-05-13T01:14:47.428Z,3.36
2019-05-13T01:15:46.690Z,3.34
2019-05-13T01:16:46.877Z,3.28
2019-05-13T01:17:47.073Z,3.20
2019-05-13T01:18:47.933Z,3.16
2019-05-13T01:19:47.931Z,3.10
2019-05-13T01:20:47.585Z,3.18
2019-05-13T01:21:47.734Z,3.21
2019-05-13T01:22:48.427Z,3.16
2019-05-13T01:24:21.467Z,3.10
2019-05-13T01:24:48.954Z,3.12
2019-05-13T01:25:48.319Z,3.13
2019-05-13T01:26:48.438Z,3.16
2019-05-13T01:27:48.578Z,3.21
2019-05-13T01:28:48.967Z,3.16
2019-05-13T01:29:48.848Z,3.23
2019-05-13T01:30:49.105Z,3.23
2019-05-13T01:31:49.253Z,3.20
2019-05-13T01:32:49.440Z,3.24
2019-05-13T01:33:49.616Z,3.30
2019-05-13T01:34:49.744Z,3.25
2019-05-13T01:35:50.458Z,3.43
2019-05-13T01:36:50.068Z,3.36
2019-05-13T01:37:50.465Z,3.33
2019-05-13T01:38:50.520Z,3.34
2019-05-13T01:39:50.645Z,3.36
2019-05-13T01:40:50.966Z,3.23
2019-05-13T01:41:51.096Z,3.20
2019-05-13T01:42:54.035Z,3.30
2019-05-13T01:43:51.472Z,3.31
2019-05-13T01:44:53.398Z,3.34
2019-05-13T01:45:53.702Z,3.27
2019-05-13T01:46:53.802Z,3.27
2019-05-13T01:47:54.508Z,3.13
2019-05-13T01:48:54.367Z,3.20
2019-05-13T01:49:54.298Z,3.20
2019-05-13T01:50:53.957Z,3.20
2019-05-13T01:52:26.331Z,3.21
2019-05-13T01:52:53.394Z,3.12
2019-05-13T01:53:54.250Z,3.16
2019-05-13T01:54:54.433Z,3.07
2019-05-13T01:55:54.987Z,3.16
2019-05-13T01:56:53.943Z,3.13
2019-05-13T01:57:54.190Z,3.02
2019-05-13T01:58:54.319Z,2.98
2019-05-13T01:59:54.489Z,3.02
2019-05-13T02:00:55.198Z,3.00
2019-05-13T02:01:55.758Z,2.98
2019-05-13T02:02:54.855Z,2.92
2019-05-13T02:03:55.989Z,2.91
2019-05-13T02:04:55.488Z,2.91
2019-05-13T02:05:56.005Z,2.97
2019-05-13T02:06:55.613Z,2.81
2019-05-13T02:08:00.454Z,2.82
2019-05-13T02:08:57.977Z,2.81
2019-05-13T02:09:56.199Z,2.85
2019-05-13T02:10:56.993Z,2.84
2019-05-13T02:11:56.492Z,2.77
2019-05-13T02:12:56.617Z,2.82
2019-05-13T02:13:56.755Z,2.74
2019-05-13T02:14:56.924Z,2.81
2019-05-13T02:15:57.041Z,2.76
2019-05-13T02:16:57.173Z,2.69
2019-05-13T02:17:57.308Z,2.69
2019-05-13T02:18:57.405Z,2.66
2019-05-13T02:19:58.659Z,2.70
2019-05-13T02:21:33.437Z,2.66
2019-05-13T02:21:58.011Z,2.59
2019-05-13T02:22:58.276Z,2.66
2019-05-13T02:23:58.407Z,2.66
2019-05-13T02:24:58.520Z,2.56
2019-05-13T02:25:58.763Z,2.53
2019-05-13T02:26:58.891Z,2.59
2019-05-13T02:27:59.519Z,2.69
2019-05-13T02:28:59.132Z,2.59
2019-05-13T02:30:00.023Z,2.71
2019-05-13T02:30:59.513Z,2.58
2019-05-13T02:32:02.759Z,2.67
2019-05-13T02:33:02.771Z,2.66
2019-05-13T02:34:02.481Z,2.66
2019-05-13T02:35:02.911Z,2.63
2019-05-13T02:36:02.992Z,2.71
2019-05-13T02:37:03.278Z,2.69
2019-05-13T02:38:18.509Z,2.69
2019-05-13T02:39:03.014Z,2.64
2019-05-13T02:40:03.470Z,2.55
2019-05-13T02:41:03.070Z,2.53
2019-05-13T02:42:03.777Z,2.59
2019-05-13T02:43:03.098Z,2.56
2019-05-13T02:44:03.981Z,2.51
2019-05-13T02:45:03.663Z,2.52
2019-05-13T02:46:04.611Z,2.58
2019-05-13T02:47:04.082Z,2.53
2019-05-13T02:48:03.567Z,2.51
2019-05-13T02:49:36.387Z,2.49
2019-05-13T02:50:05.172Z,2.52
2019-05-13T02:51:04.353Z,2.55
2019-05-13T02:52:04.027Z,2.66
2019-05-13T02:53:03.554Z,2.66
2019-05-13T02:54:03.819Z,2.63
2019-05-13T02:55:04.537Z,2.73
2019-05-13T02:56:04.031Z,2.70
2019-05-13T02:57:04.333Z,2.79
2019-05-13T02:58:04.352Z,2.71
2019-05-13T02:59:04.471Z,2.77
2019-05-13T03:00:04.629Z,2.73
2019-05-13T03:01:05.524Z,2.70
2019-05-13T03:02:05.024Z,2.73
2019-05-13T03:03:05.237Z,2.61
2019-05-13T03:04:06.370Z,2.48
2019-05-13T03:05:06.535Z,2.58
2019-05-13T03:06:05.776Z,2.52
2019-05-13T03:07:05.918Z,2.46
2019-05-13T03:08:06.585Z,2.49
2019-05-13T03:09:06.176Z,2.40
2019-05-13T03:10:06.309Z,2.46
2019-05-13T03:11:07.066Z,2.46
2019-05-13T03:12:07.543Z,2.48
2019-05-13T03:13:06.961Z,2.38
2019-05-13T03:14:07.116Z,2.38
2019-05-13T03:15:07.297Z,2.34
2019-05-13T03:16:07.460Z,2.23
2019-05-13T03:17:43.243Z,2.30
2019-05-13T03:18:07.754Z,2.23
2019-05-13T03:19:07.883Z,2.31
2019-05-13T03:20:11.923Z,2.30
2019-05-13T03:21:12.437Z,2.26
2019-05-13T03:22:08.277Z,2.34
2019-05-13T03:23:08.406Z,2.33
2019-05-13T03:24:08.556Z,2.20
2019-05-13T03:25:08.719Z,2.22
2019-05-13T03:26:08.858Z,2.20
2019-05-13T03:27:12.712Z,2.23
2019-05-13T03:28:09.216Z,2.17
2019-05-13T03:29:09.356Z,2.15
2019-05-13T03:30:15.729Z,2.27
2019-05-13T03:31:15.909Z,2.19
2019-05-13T03:32:16.653Z,2.16
2019-05-13T03:33:18.586Z,2.19
2019-05-13T03:34:15.489Z,2.28
2019-05-13T03:35:16.288Z,2.22
2019-05-13T03:36:16.693Z,2.35
2019-05-13T03:37:15.459Z,2.41
2019-05-13T03:38:12.924Z,2.48
2019-05-13T03:39:16.097Z,2.52
2019-05-13T03:40:13.341Z,2.52
2019-05-13T03:41:13.072Z,2.58
2019-05-13T03:42:12.567Z,2.51
2019-05-13T03:43:12.992Z,2.53
2019-05-13T03:44:13.832Z,2.56
2019-05-13T03:45:13.492Z,2.52
2019-05-13T03:46:12.743Z,2.48
2019-05-13T03:47:13.573Z,2.48
2019-05-13T03:48:13.071Z,2.33
2019-05-13T03:49:14.396Z,2.30
2019-05-13T03:50:14.067Z,2.17
2019-05-13T03:51:13.868Z,2.27
2019-05-13T03:52:13.737Z,2.27
2019-05-13T03:53:13.857Z,2.23
2019-05-13T03:54:13.983Z,2.17
2019-05-13T03:55:14.140Z,2.17
2019-05-13T03:56:14.259Z,2.19
2019-05-13T03:57:14.517Z,2.26
2019-05-13T03:58:14.640Z,2.22
2019-05-13T03:59:14.882Z,2.28
2019-05-13T04:00:15.565Z,2.26
2019-05-13T04:01:15.170Z,2.22
2019-05-13T04:02:15.313Z,2.19
2019-05-13T04:03:15.442Z,2.16
2019-05-13T04:04:15.577Z,2.19
2019-05-13T04:05:15.709Z,2.23
2019-05-13T04:06:16.567Z,2.23
2019-05-13T04:07:16.096Z,2.30
2019-05-13T04:08:17.061Z,2.27
2019-05-13T04:09:26.394Z,2.28
2019-05-13T04:10:18.573Z,2.41
2019-05-13T04:11:16.776Z,2.34
2019-05-13T04:12:16.933Z,2.28
2019-05-13T04:13:17.067Z,2.27
2019-05-13T04:14:52.822Z,2.34
2019-05-13T04:15:17.331Z,2.35
2019-05-13T04:16:17.465Z,2.33
2019-05-13T04:17:17.646Z,2.41
2019-05-13T04:18:18.803Z,2.35
2019-05-13T04:19:17.916Z,2.35
2019-05-13T04:20:18.076Z,2.38
2019-05-13T04:21:19.078Z,2.48
2019-05-13T04:22:18.441Z,2.46
2019-05-13T04:23:18.596Z,2.41
2019-05-13T04:24:18.775Z,2.49
2019-05-13T04:25:18.951Z,2.55
2019-05-13T04:26:23.179Z,2.53
2019-05-13T04:27:19.302Z,2.58
2019-05-13T04:28:22.137Z,2.53
2019-05-13T04:29:19.582Z,2.52
2019-05-13T04:30:22.350Z,2.55
2019-05-13T04:31:22.814Z,2.69
2019-05-13T04:32:22.942Z,2.67
2019-05-13T04:33:22.949Z,2.74
2019-05-13T04:34:22.893Z,2.81
2019-05-13T04:35:23.219Z,2.81
2019-05-13T04:36:23.421Z,2.87
2019-05-13T04:37:22.477Z,2.94
2019-05-13T04:38:22.957Z,2.95
2019-05-13T04:39:40.409Z,2.98
2019-05-13T04:40:23.609Z,3.03
2019-05-13T04:41:23.234Z,3.07
2019-05-13T04:42:23.308Z,3.12
2019-05-13T04:43:23.785Z,3.18
2019-05-13T04:44:24.115Z,3.27
2019-05-13T04:45:24.279Z,3.34
2019-05-13T04:46:23.777Z,3.40
2019-05-13T04:47:43.886Z,3.43
2019-05-13T04:48:25.092Z,3.54
2019-05-13T04:49:23.659Z,3.62
2019-05-13T04:50:23.605Z,3.75
2019-05-13T04:51:23.621Z,3.71
2019-05-13T04:52:23.741Z,3.83
2019-05-13T04:53:24.589Z,4.03
2019-05-13T04:54:24.602Z,4.14
2019-05-13T04:55:24.253Z,4.28
2019-05-13T04:56:25.092Z,4.22
2019-05-13T04:57:25.096Z,4.15
2019-05-13T04:58:25.597Z,4.40
2019-05-13T04:59:25.604Z,4.36
2019-05-13T05:00:25.166Z,4.52
2019-05-13T05:01:25.376Z,4.47
2019-05-13T05:02:36.618Z,4.50
2019-05-13T05:03:32.972Z,4.50
2019-05-13T05:04:30.912Z,4.61
2019-05-13T05:05:28.219Z,4.73
2019-05-13T05:06:26.326Z,4.69
2019-05-13T05:07:26.485Z,4.89
2019-05-13T05:08:27.625Z,5.07
2019-05-13T05:09:26.885Z,5.20
2019-05-13T05:11:02.472Z,5.30
2019-05-13T05:11:27.230Z,5.37
2019-05-13T05:12:27.400Z,5.34
2019-05-13T05:13:27.537Z,5.35
2019-05-13T05:14:28.628Z,5.52
2019-05-13T05:15:28.628Z,5.52
2019-05-13T05:16:29.143Z,5.60
2019-05-13T05:17:28.651Z,5.48
2019-05-13T05:18:28.415Z,5.60
2019-05-13T05:19:31.889Z,5.70
2019-05-13T05:20:32.106Z,5.68
2019-05-13T05:21:28.876Z,5.85
2019-05-13T05:22:31.404Z,5.83
2019-05-13T05:23:29.202Z,5.85
2019-05-13T05:24:32.355Z,5.82
2019-05-13T05:25:29.491Z,5.85
2019-05-13T05:26:31.370Z,5.86
2019-05-13T05:27:31.662Z,6.06
2019-05-13T05:28:31.991Z,6.10
2019-05-13T05:29:32.253Z,6.38
2019-05-13T05:30:32.293Z,6.29
2019-05-13T05:31:32.656Z,6.10
2019-05-13T05:32:32.378Z,6.16
2019-05-13T05:33:32.024Z,6.07
2019-05-13T05:34:32.332Z,6.22
2019-05-13T05:35:33.125Z,6.41
2019-05-13T05:36:32.202Z,6.44
2019-05-13T05:37:33.639Z,6.61
2019-05-13T05:38:32.148Z,6.72
2019-05-13T05:39:32.040Z,6.77
2019-05-13T05:40:34.782Z,6.80
2019-05-13T05:41:32.352Z,6.79
2019-05-13T05:42:33.126Z,6.79
2019-05-13T05:43:33.123Z,6.94
2019-05-13T05:44:32.889Z,6.94
2019-05-13T05:45:32.906Z,7.13
2019-05-13T05:46:33.039Z,7.37
2019-05-13T05:47:34.124Z,7.40
2019-05-13T05:48:33.462Z,7.44
2019-05-13T05:49:33.683Z,7.58
2019-05-13T05:50:33.796Z,7.62
2019-05-13T05:51:34.048Z,7.52
2019-05-13T05:52:34.194Z,7.08
2019-05-13T05:53:34.300Z,7.01
2019-05-13T05:54:34.544Z,7.07
2019-05-13T05:55:34.643Z,7.01
2019-05-13T05:56:34.783Z,6.98
2019-05-13T05:57:35.046Z,7.08
2019-05-13T05:58:35.173Z,7.16
2019-05-13T05:59:35.341Z,7.23
2019-05-13T06:00:35.429Z,7.29
2019-05-13T06:01:37.421Z,7.52
2019-05-13T06:02:37.632Z,7.47
2019-05-13T06:03:36.624Z,7.41
2019-05-13T06:04:37.171Z,7.52
2019-05-13T06:05:36.380Z,7.31
2019-05-13T06:06:36.491Z,7.16
2019-05-13T06:07:36.730Z,7.13
2019-05-13T06:08:36.969Z,7.08
2019-05-13T06:09:37.151Z,7.13
2019-05-13T06:10:47.272Z,7.09
2019-05-13T06:11:41.611Z,7.09
2019-05-13T06:12:37.646Z,7.16
2019-05-13T06:13:37.868Z,7.13
2019-05-13T06:14:38.128Z,7.13
2019-05-13T06:15:38.638Z,7.05
2019-05-13T06:16:38.358Z,7.07
2019-05-13T06:17:38.610Z,7.01
2019-05-13T06:18:38.732Z,7.20
2019-05-13T06:19:39.008Z,7.09
2019-05-13T06:20:39.141Z,7.22
2019-05-13T06:21:42.053Z,7.34
2019-05-13T06:22:39.446Z,7.24
2019-05-13T06:23:41.787Z,7.19
2019-05-13T06:24:42.085Z,7.09
2019-05-13T06:25:42.826Z,6.91
2019-05-13T06:26:42.062Z,6.89
2019-05-13T06:27:42.206Z,6.84
2019-05-13T06:28:41.621Z,6.77
2019-05-13T06:29:42.401Z,6.91
2019-05-13T06:30:42.158Z,6.87
2019-05-13T06:31:42.147Z,6.90
2019-05-13T06:32:41.883Z,6.77
2019-05-13T06:33:42.621Z,6.73
2019-05-13T06:34:41.767Z,6.59
2019-05-13T06:35:44.745Z,6.69
2019-05-13T06:36:43.075Z,6.68
2019-05-13T06:37:42.364Z,6.62
2019-05-13T06:39:04.031Z,6.65
2019-05-13T06:39:42.731Z,6.65
2019-05-13T06:40:43.648Z,6.76
2019-05-13T06:41:44.018Z,6.80
2019-05-13T06:42:43.136Z,6.81
2019-05-13T06:43:43.313Z,6.91
2019-05-13T06:45:16.354Z,6.99
2019-05-13T06:45:43.573Z,6.91
2019-05-13T06:46:43.727Z,6.94
2019-05-13T06:47:44.647Z,6.94
2019-05-13T06:48:44.124Z,7.02
2019-05-13T06:49:44.251Z,7.12
2019-05-13T06:50:44.455Z,7.34
2019-05-13T06:51:44.688Z,7.38
2019-05-13T06:52:44.720Z,7.31
2019-05-13T06:53:44.866Z,7.13
2019-05-13T06:54:45.663Z,7.17
2019-05-13T06:55:45.292Z,7.19
2019-05-13T06:56:45.473Z,7.02
2019-05-13T06:57:45.584Z,7.01
2019-05-13T06:58:46.670Z,7.05
2019-05-13T06:59:45.897Z,7.12
2019-05-13T07:00:46.661Z,7.07
2019-05-13T07:01:46.668Z,7.12
2019-05-13T07:02:46.419Z,6.99
2019-05-13T07:03:47.170Z,6.84
2019-05-13T07:04:46.789Z,7.07
2019-05-13T07:05:46.959Z,7.02
2019-05-13T07:06:47.144Z,7.13
2019-05-13T07:07:47.710Z,7.52
2019-05-13T07:08:47.451Z,7.90
2019-05-13T07:09:47.574Z,8.29
2019-05-13T07:10:47.711Z,8.35
2019-05-13T07:11:47.934Z,8.50
2019-05-13T07:12:48.084Z,8.81
2019-05-13T07:13:48.271Z,9.21
2019-05-13T07:14:51.157Z,8.97
2019-05-13T07:15:48.581Z,8.60
2019-05-13T07:16:48.731Z,8.36
2019-05-13T07:17:51.818Z,8.29
2019-05-13T07:18:49.080Z,8.35
2019-05-13T07:19:51.493Z,8.54
2019-05-13T07:20:49.436Z,8.60
2019-05-13T07:21:51.945Z,8.76
2019-05-13T07:22:53.181Z,8.73
2019-05-13T07:23:54.497Z,8.57
2019-05-13T07:24:51.899Z,8.60
2019-05-13T07:25:52.493Z,8.51
2019-05-13T07:26:52.355Z,8.51
2019-05-13T07:27:51.713Z,8.20
2019-05-13T07:28:52.450Z,8.25
2019-05-13T07:29:55.505Z,8.29
2019-05-13T07:30:51.726Z,8.37
2019-05-13T07:31:53.181Z,8.51
2019-05-13T07:32:52.378Z,8.54
2019-05-13T07:33:52.760Z,8.68
2019-05-13T07:34:53.223Z,8.91
2019-05-13T07:35:58.253Z,8.99
2019-05-13T07:36:54.428Z,9.12
2019-05-13T07:37:53.164Z,9.16
2019-05-13T07:38:53.185Z,8.97
2019-05-13T07:39:53.217Z,8.99
2019-05-13T07:40:54.674Z,9.40
2019-05-13T07:41:53.688Z,9.66
2019-05-13T07:42:53.559Z,9.66
2019-05-13T07:43:54.679Z,9.78
2019-05-13T07:44:54.209Z,9.53
2019-05-13T07:45:54.680Z,9.49
2019-05-13T07:46:54.317Z,9.94
2019-05-13T07:47:54.459Z,10.10
2019-05-13T07:48:55.189Z,10.04
2019-05-13T07:49:54.873Z,10.37
2019-05-13T07:51:00.366Z,11.28
2019-05-13T07:51:58.178Z,12.08
2019-05-13T07:52:55.698Z,12.15
2019-05-13T07:53:56.172Z,11.65
2019-05-13T07:54:56.672Z,11.09
2019-05-13T07:55:56.179Z,10.59
2019-05-13T07:56:57.204Z,10.62
2019-05-13T07:57:56.319Z,10.55
2019-05-13T07:58:56.455Z,10.42
2019-05-13T07:59:56.591Z,10.30
2019-05-13T08:00:56.781Z,10.28
2019-05-13T08:01:56.923Z,10.44
2019-05-13T08:02:57.067Z,10.32
2019-05-13T08:03:57.206Z,9.97
2019-05-13T08:04:57.388Z,10.36
2019-05-13T08:05:57.581Z,10.25
2019-05-13T08:07:01.592Z,10.17
2019-05-13T08:07:58.690Z,10.03
2019-05-13T08:08:58.086Z,9.97
2019-05-13T08:10:00.924Z,9.82
2019-05-13T08:11:01.209Z,9.94
2019-05-13T08:12:06.493Z,10.21
2019-05-13T08:13:02.367Z,10.42
2019-05-13T08:13:58.900Z,10.56
2019-05-13T08:14:59.065Z,10.76
2019-05-13T08:16:01.637Z,10.70
2019-05-13T08:16:59.394Z,10.65
2019-05-13T08:18:33.604Z,10.68
2019-05-13T08:19:01.824Z,10.70
2019-05-13T08:20:02.867Z,10.53
2019-05-13T08:21:01.988Z,10.55
2019-05-13T08:22:02.104Z,10.46
2019-05-13T08:23:02.694Z,10.17
2019-05-13T08:24:02.668Z,10.12
2019-05-13T08:25:03.333Z,10.10
2019-05-13T08:26:02.700Z,10.12
2019-05-13T08:27:02.057Z,10.15
2019-05-13T08:28:02.395Z,10.30
2019-05-13T08:29:04.893Z,10.44
2019-05-13T08:30:02.800Z,10.60
2019-05-13T08:31:02.705Z,10.56
2019-05-13T08:32:03.330Z,10.59
2019-05-13T08:33:03.227Z,10.74
2019-05-13T08:34:02.750Z,10.59
2019-05-13T08:35:08.752Z,10.46
2019-05-13T08:36:05.118Z,10.47
2019-05-13T08:37:03.434Z,10.25
2019-05-13T08:38:03.396Z,10.22
2019-05-13T08:39:03.725Z,10.24
2019-05-13T08:40:03.753Z,10.28
2019-05-13T08:41:03.890Z,10.43
2019-05-13T08:42:15.082Z,10.46
2019-05-13T08:43:07.042Z,10.46
2019-05-13T08:44:05.721Z,10.52
2019-05-13T08:45:04.733Z,10.43
2019-05-13T08:46:04.872Z,10.40
2019-05-13T08:47:04.996Z,10.14
2019-05-13T08:48:05.257Z,10.03
2019-05-13T08:49:06.199Z,10.15
2019-05-13T08:50:06.202Z,10.21
2019-05-13T08:51:05.737Z,10.36
2019-05-13T08:52:05.888Z,10.37
2019-05-13T08:53:06.704Z,10.42
2019-05-13T08:54:06.226Z,10.42
2019-05-13T08:55:06.374Z,10.58
2019-05-13T08:56:06.514Z,10.39
2019-05-13T08:57:07.215Z,10.52
2019-05-13T08:58:06.869Z,10.37
2019-05-13T08:59:06.998Z,10.63
2019-05-13T09:00:07.204Z,10.52
2019-05-13T09:01:07.345Z,10.60
2019-05-13T09:02:08.208Z,10.65
2019-05-13T09:03:07.736Z,10.76
2019-05-13T09:04:08.272Z,10.68
2019-05-13T09:05:07.998Z,10.63
2019-05-13T09:06:08.715Z,10.59
2019-05-13T09:07:08.335Z,10.73
2019-05-13T09:08:08.506Z,10.96
2019-05-13T09:09:11.310Z,11.06
2019-05-13T09:10:08.787Z,11.19
2019-05-13T09:11:08.914Z,11.19
2019-05-13T09:12:11.315Z,11.10
2019-05-13T09:13:09.256Z,11.03
2019-05-13T09:14:11.292Z,10.98
2019-05-13T09:15:11.838Z,10.95
2019-05-13T09:16:13.168Z,11.02
2019-05-13T09:17:12.019Z,10.73
2019-05-13T09:18:11.477Z,10.92
2019-05-13T09:19:15.922Z,11.01
2019-05-13T09:20:12.588Z,11.25
2019-05-13T09:21:11.731Z,11.31
2019-05-13T09:22:12.484Z,11.14
2019-05-13T09:23:11.934Z,11.06
2019-05-13T09:24:23.860Z,10.98
2019-05-13T09:25:13.298Z,10.78
2019-05-13T09:26:13.246Z,10.71
2019-05-13T09:27:12.143Z,10.83
2019-05-13T09:28:12.867Z,11.02
2019-05-13T09:29:12.124Z,11.07
2019-05-13T09:30:12.296Z,11.25
2019-05-13T09:31:12.799Z,11.38
2019-05-13T09:32:13.613Z,11.38
2019-05-13T09:33:12.815Z,11.39
2019-05-13T09:34:13.067Z,11.57
2019-05-13T09:35:13.201Z,11.70
2019-05-13T09:36:13.347Z,11.47
2019-05-13T09:37:13.488Z,11.41
2019-05-13T09:38:13.657Z,11.27
2019-05-13T09:39:13.812Z,11.19
2019-05-13T09:40:13.930Z,11.10
2019-05-13T09:41:15.251Z,11.35
2019-05-13T09:42:14.353Z,11.35
2019-05-13T09:43:14.488Z,11.29
2019-05-13T09:44:14.615Z,11.46
2019-05-13T09:45:15.706Z,11.54
2019-05-13T09:46:14.986Z,11.61
2019-05-13T09:47:15.114Z,11.65
2019-05-13T09:48:16.133Z,11.62
2019-05-13T09:49:19.874Z,11.49
2019-05-13T09:50:28.700Z,11.35
2019-05-13T09:51:17.783Z,11.28
2019-05-13T09:52:16.000Z,11.27
2019-05-13T09:53:16.152Z,11.32
2019-05-13T09:54:17.222Z,11.32
2019-05-13T09:55:26.349Z,11.49
2019-05-13T09:56:18.728Z,11.50
2019-05-13T09:57:17.721Z,11.61
2019-05-13T09:58:16.948Z,11.85
2019-05-13T09:59:17.209Z,11.74
2019-05-13T10:00:17.338Z,11.74
2019-05-13T10:01:17.514Z,11.62
2019-05-13T10:02:17.663Z,11.50
2019-05-13T10:03:17.829Z,11.67
2019-05-13T10:04:18.013Z,11.80
2019-05-13T10:05:18.180Z,12.04
2019-05-13T10:06:21.863Z,12.15
2019-05-13T10:07:18.613Z,12.11
2019-05-13T10:08:21.965Z,12.08
2019-05-13T10:09:18.883Z,11.90
2019-05-13T10:10:19.010Z,11.90
2019-05-13T10:11:21.621Z,11.97
2019-05-13T10:12:23.259Z,11.96
2019-05-13T10:13:19.521Z,11.96
2019-05-13T10:14:19.636Z,12.09
2019-05-13T10:15:22.100Z,11.97
2019-05-13T10:16:22.059Z,11.90
2019-05-13T10:17:22.103Z,11.86
2019-05-13T10:18:22.413Z,11.89
2019-05-13T10:19:21.510Z,12.05
2019-05-13T10:20:21.613Z,12.06
2019-05-13T10:21:21.811Z,12.02
2019-05-13T10:22:22.734Z,11.85
2019-05-13T10:23:22.001Z,11.87
2019-05-13T10:24:22.503Z,11.89
2019-05-13T10:25:22.686Z,11.78
2019-05-13T10:26:22.925Z,11.68
2019-05-13T10:27:22.779Z,11.53
2019-05-13T10:28:22.026Z,11.62
2019-05-13T10:29:22.594Z,11.61
2019-05-13T10:30:23.331Z,11.53
2019-05-13T10:31:22.558Z,11.68
2019-05-13T10:32:23.257Z,11.62
2019-05-13T10:33:22.896Z,11.68
2019-05-13T10:34:23.277Z,11.56
2019-05-13T10:35:23.741Z,11.64
2019-05-13T10:36:23.354Z,11.65
2019-05-13T10:37:24.230Z,11.82
2019-05-13T10:38:27.431Z,11.77
2019-05-13T10:39:25.246Z,11.83
2019-05-13T10:40:24.286Z,12.21
2019-05-13T10:41:24.149Z,12.26
2019-05-13T10:42:25.296Z,12.33
2019-05-13T10:43:31.346Z,12.24
2019-05-13T10:44:27.733Z,12.08
2019-05-13T10:45:25.959Z,11.97
2019-05-13T10:46:25.124Z,11.93
2019-05-13T10:47:26.266Z,12.01
2019-05-13T10:48:25.375Z,12.15
2019-05-13T10:49:25.496Z,12.19
2019-05-13T10:51:01.961Z,12.56
2019-05-13T10:51:26.297Z,12.66
2019-05-13T10:52:25.896Z,12.75
2019-05-13T10:53:26.057Z,12.93
2019-05-13T10:54:26.192Z,13.03
2019-05-13T10:55:27.259Z,13.27
2019-05-13T10:56:26.533Z,13.15
2019-05-13T10:57:27.258Z,13.12
2019-05-13T10:58:27.796Z,13.04
2019-05-13T10:59:27.028Z,12.89
2019-05-13T11:00:27.315Z,12.74
2019-05-13T11:01:27.348Z,12.74
2019-05-13T11:02:28.283Z,12.84
2019-05-13T11:03:27.679Z,12.99
2019-05-13T11:04:27.816Z,12.99
2019-05-13T11:05:27.982Z,12.97
2019-05-13T11:06:28.780Z,12.96
2019-05-13T11:07:28.361Z,12.96
2019-05-13T11:08:28.566Z,12.79
2019-05-13T11:09:28.715Z,12.75
2019-05-13T11:10:28.869Z,12.75
2019-05-13T11:11:32.060Z,12.75
2019-05-13T11:12:29.178Z,12.75
2019-05-13T11:13:48.806Z,12.63
2019-05-13T11:14:32.360Z,12.56
2019-05-13T11:15:35.937Z,12.38
2019-05-13T11:16:30.910Z,12.31
2019-05-13T11:17:32.968Z,12.31
2019-05-13T11:18:31.316Z,12.42
2019-05-13T11:19:36.134Z,12.45
2019-05-13T11:20:32.624Z,12.37
2019-05-13T11:21:32.202Z,12.48
2019-05-13T11:22:32.669Z,12.56
2019-05-13T11:23:32.283Z,12.46
2019-05-13T11:24:33.269Z,12.38
2019-05-13T11:25:32.397Z,12.21
2019-05-13T11:26:36.291Z,12.45
2019-05-13T11:27:32.847Z,12.52
2019-05-13T11:28:32.309Z,12.45
2019-05-13T11:29:32.829Z,12.56
2019-05-13T11:30:32.446Z,12.69
2019-05-13T11:31:33.285Z,12.81
2019-05-13T11:32:32.755Z,12.70
2019-05-13T11:33:33.280Z,12.78
2019-05-13T11:34:33.792Z,12.84
2019-05-13T11:35:33.798Z,12.95
2019-05-13T11:36:33.593Z,13.03
2019-05-13T11:37:33.796Z,13.17
2019-05-13T11:38:34.297Z,13.03
2019-05-13T11:39:34.793Z,13.12
2019-05-13T11:40:34.167Z,13.14
2019-05-13T11:41:34.304Z,13.38
2019-05-13T11:42:34.463Z,13.62
2019-05-13T11:43:34.621Z,13.65
2019-05-13T11:44:35.288Z,13.74
2019-05-13T11:45:35.770Z,13.83
2019-05-13T11:46:35.108Z,13.87
2019-05-13T11:47:36.282Z,13.83
2019-05-13T11:48:35.795Z,13.92
2019-05-13T11:49:35.790Z,13.95
2019-05-13T11:50:36.799Z,13.96
2019-05-13T11:51:36.045Z,13.94
2019-05-13T11:52:36.259Z,13.92
2019-05-13T11:53:37.717Z,13.84
2019-05-13T11:54:37.808Z,13.77
2019-05-13T11:55:36.786Z,13.74
2019-05-13T11:56:36.931Z,13.62
2019-05-13T11:57:37.060Z,13.30
2019-05-13T11:58:38.292Z,13.22
2019-05-13T11:59:37.542Z,13.32
2019-05-13T12:00:37.735Z,13.21
2019-05-13T12:01:37.892Z,13.29
2019-05-13T12:02:38.052Z,13.58
2019-05-13T12:03:38.193Z,13.62
2019-05-13T12:04:43.064Z,13.84
2019-05-13T12:05:38.798Z,13.94
2019-05-13T12:06:47.762Z,13.92
2019-05-13T12:07:40.238Z,13.83
2019-05-13T12:08:39.063Z,13.95
2019-05-13T12:09:39.199Z,14.16
2019-05-13T12:10:43.745Z,14.07
2019-05-13T12:11:39.568Z,14.14
2019-05-13T12:12:43.318Z,14.07
2019-05-13T12:13:42.047Z,14.02
2019-05-13T12:15:04.111Z,13.98
2019-05-13T12:15:46.787Z,14.01
2019-05-13T12:16:42.530Z,14.25
2019-05-13T12:17:43.078Z,14.24
2019-05-13T12:18:43.639Z,14.24
2019-05-13T12:19:42.002Z,14.19
2019-05-13T12:20:42.646Z,14.04
2019-05-13T12:21:46.447Z,14.14
2019-05-13T12:22:42.780Z,14.28
2019-05-13T12:23:42.920Z,14.14
2019-05-13T12:24:42.879Z,13.92
2019-05-13T12:25:43.747Z,13.71
2019-05-13T12:26:43.702Z,13.74
2019-05-13T12:27:43.538Z,13.80
2019-05-13T12:28:42.653Z,13.83
2019-05-13T12:29:43.247Z,14.12
2019-05-13T12:30:43.919Z,14.19
2019-05-13T12:31:43.049Z,14.21
2019-05-13T12:32:43.877Z,14.44
2019-05-13T12:33:45.281Z,14.28
2019-05-13T12:34:45.756Z,14.31
2019-05-13T12:35:44.864Z,14.32
2019-05-13T12:36:44.101Z,14.24
2019-05-13T12:37:44.265Z,14.27
2019-05-13T12:38:44.591Z,14.34
2019-05-13T12:39:44.630Z,14.35
2019-05-13T12:40:44.787Z,14.52
2019-05-13T12:41:45.782Z,14.35
2019-05-13T12:42:47.257Z,14.20
2019-05-13T12:43:46.832Z,14.20
2019-05-13T12:45:00.231Z,14.13
2019-05-13T12:45:45.805Z,14.19
2019-05-13T12:46:50.321Z,14.34
2019-05-13T12:47:47.092Z,14.32
2019-05-13T12:48:46.336Z,14.42
2019-05-13T12:49:47.302Z,14.49
2019-05-13T12:50:47.306Z,14.65
2019-05-13T12:51:46.815Z,14.74
2019-05-13T12:52:46.956Z,14.61
2019-05-13T12:53:47.328Z,14.68
2019-05-13T12:54:47.799Z,14.72
2019-05-13T12:55:52.754Z,14.64
2019-05-13T12:56:52.102Z,14.53
2019-05-13T12:57:47.719Z,14.42
2019-05-13T12:58:47.931Z,14.31
2019-05-13T12:59:48.812Z,14.38
2019-05-13T13:00:49.305Z,14.29
2019-05-13T13:01:48.416Z,14.20
2019-05-13T13:02:51.555Z,14.21
2019-05-13T13:03:49.755Z,14.20
2019-05-13T13:05:09.361Z,14.25
2019-05-13T13:05:50.138Z,14.20
2019-05-13T13:06:52.756Z,14.25
2019-05-13T13:08:13.545Z,14.32
2019-05-13T13:08:51.622Z,14.56
2019-05-13T13:09:53.405Z,14.74